Flight Track Log - Related Links

Times and Time Zones

All times are in EDT time to prevent confusion due to time zone crossing. See the N550SW flight status page for this flight to view local times or setup timezone preferences in your user account.

Time Position Orientation Groundspeed Altitude Reporting Facility
EDT Latitude Longitude Course Direction KTS MPH feet Rate Location/Type
Thu 07:10:24 PM 39.2167 -77.2000 360° North 132 152 3,300  Level Potomac TRACON
Thu 07:11:24 PM 39.2500 -77.1500 49° Northeast 146 168 4,500 1,286 Climbing Potomac TRACON
Thu 07:12:30 PM 39.2667 -77.1000 67° East 155 178 6,000 1,190 Climbing Potomac TRACON
Thu 07:13:30 PM 39.2833 -77.0500 67° East 160 184 7,000 579 Climbing Potomac TRACON
Thu 07:14:24 PM 39.2833 -76.9833 90° East 197 227 7,100 53 Climbing Potomac TRACON
Thu 07:15:24 PM 39.2833 -76.9167 90° East 212 244 7,100  Level Potomac TRACON
Thu 07:16:24 PM 39.2667 -76.8333 104° East 216 249 7,100  Level Potomac TRACON
Thu 07:17:30 PM 39.2667 -76.7500 90° East 218 251 7,100 476 Level Potomac TRACON
Thu 07:18:30 PM 39.2500 -76.6833 108° East 195 224 8,100 835 Climbing Potomac TRACON
Thu 07:19:25 PM 39.2333 -76.6333 113° Southeast 199 229 8,700 496 Climbing Potomac TRACON
Thu 07:20:31 PM 39.2167 -76.5500 104° East 206 237 9,100 190 Climbing Potomac TRACON
Thu 07:21:31 PM 39.2000 -76.4833 108° East 220 253 9,100  Level Potomac TRACON
Thu 07:22:31 PM 39.1833 -76.4000 104° East 227 261 9,100  Level Potomac TRACON
Thu 07:23:31 PM 39.1667 -76.3167 104° East 234 269 9,100  Level Potomac TRACON
Thu 07:24:32 PM 39.1500 -76.2333 104° East 232 267 9,100  Level Potomac TRACON
Thu 07:25:38 PM 39.1667 -76.1500 76° East 229 264 9,100  Level Potomac TRACON
Thu 07:26:38 PM 39.1667 -76.0667 90° East 227 261 9,100  Level Potomac TRACON
Thu 07:27:33 PM 39.1667 -76.0000 90° East 225 259 9,100 -41 Level Potomac TRACON
Thu 07:29:04 PM 39.1819 -75.8861 80° East 241 277 9,000 -39 Descending Washington Center
Thu 07:30:05 PM 39.1903 -75.8086 82° East 230 265 9,000  Level Washington Center
Thu 07:31:05 PM 39.1967 -75.7256 84° East 230 265 9,000  Level Washington Center
Thu 07:32:04 PM 39.2050 -75.6478 82° East 225 259 9,000  Level Washington Center
Thu 07:33:04 PM 39.2114 -75.5647 84° East 225 259 9,000  Level Washington Center
Thu 07:34:05 PM 39.2197 -75.4817 83° East 225 259 9,000  Level Washington Center
Thu 07:35:06 PM 39.2236 -75.3986 87° East 225 259 9,000  Level Washington Center
Thu 07:36:04 PM 39.2319 -75.3156 83° East 225 259 9,000 -50 Level Washington Center
Thu 07:37:05 PM 39.2419 -75.2350 81° East 230 265 8,900 -446 Descending Washington Center
Thu 07:38:05 PM 39.2708 -75.1519 66° East 236 272 8,100 -458 Descending Washington Center
Thu 07:39:03 PM 39.2997 -75.0714 65° Northeast 246 283 8,000 -400 Descending Washington Center
Thu 07:40:05 PM 39.3222 -74.9881 71° East 246 283 7,300 -787 Descending Washington Center
Thu 07:41:05 PM 39.3197 -74.8994 92° East 241 277 6,400 -1,240 Descending Washington Center
Thu 07:42:06 PM 39.3150 -74.8136 94° East 236 272 4,800 -1,210 Descending Washington Center
Thu 07:43:04 PM 39.3186 -74.7331 87° East 231 266 4,000 -807 Descending Washington Center
Thu 07:44:05 PM 39.3389 -74.6578 71° East 226 260 3,200 -1,033 Descending Washington Center
Thu 07:45:06 PM 39.3717 -74.5903 58° Northeast 221 254 1,900 -893 Descending Washington Center
Thu 07:46:06 PM 39.4089 -74.5467 42° Northeast 201 231 1,400 -500 Descending Washington Center

Login

Don't have an account? Register now (free) for customized features, flight alerts, and more!